sensor_id;sensor_type;location;lat;lon;timestamp;temperature;humidity
13198;DHT22;6664;52.514;13.440;2023-03-19T00:01:07;8.70;26.50
13198;DHT22;6664;52.514;13.440;2023-03-19T00:03:53;8.60;26.40
13198;DHT22;6664;52.514;13.440;2023-03-19T00:06:41;8.60;26.50
13198;DHT22;6664;52.514;13.440;2023-03-19T00:09:29;8.50;26.50
13198;DHT22;6664;52.514;13.440;2023-03-19T00:12:14;8.50;26.10
13198;DHT22;6664;52.514;13.440;2023-03-19T00:15:05;8.60;26.10
13198;DHT22;6664;52.514;13.440;2023-03-19T00:17:53;8.50;26.00
13198;DHT22;6664;52.514;13.440;2023-03-19T00:20:40;8.50;26.00
13198;DHT22;6664;52.514;13.440;2023-03-19T00:23:27;8.50;26.00
13198;DHT22;6664;52.514;13.440;2023-03-19T00:26:12;8.50;26.00
13198;DHT22;6664;52.514;13.440;2023-03-19T00:28:58;8.40;26.20
13198;DHT22;6664;52.514;13.440;2023-03-19T00:31:44;8.40;26.70
13198;DHT22;6664;52.514;13.440;2023-03-19T00:34:30;8.50;26.50
13198;DHT22;6664;52.514;13.440;2023-03-19T00:37:16;8.50;26.40
13198;DHT22;6664;52.514;13.440;2023-03-19T00:40:03;8.50;26.20
13198;DHT22;6664;52.514;13.440;2023-03-19T00:42:49;8.40;26.30
13198;DHT22;6664;52.514;13.440;2023-03-19T00:45:35;8.30;26.20
13198;DHT22;6664;52.514;13.440;2023-03-19T00:48:20;8.30;26.60
13198;DHT22;6664;52.514;13.440;2023-03-19T00:51:08;8.40;26.10
13198;DHT22;6664;52.514;13.440;2023-03-19T00:53:56;8.30;26.20
13198;DHT22;6664;52.514;13.440;2023-03-19T00:56:44;8.20;26.00
13198;DHT22;6664;52.514;13.440;2023-03-19T00:59:30;8.10;26.40
13198;DHT22;6664;52.514;13.440;2023-03-19T01:02:16;8.20;25.90
13198;DHT22;6664;52.514;13.440;2023-03-19T01:05:02;8.10;25.90
13198;DHT22;6664;52.514;13.440;2023-03-19T01:07:47;8.00;26.30
13198;DHT22;6664;52.514;13.440;2023-03-19T01:10:33;8.00;26.30
13198;DHT22;6664;52.514;13.440;2023-03-19T01:13:19;7.90;26.20
13198;DHT22;6664;52.514;13.440;2023-03-19T01:16:05;7.80;26.20
13198;DHT22;6664;52.514;13.440;2023-03-19T01:18:55;7.80;26.10
13198;DHT22;6664;52.514;13.440;2023-03-19T01:21:43;7.90;25.90
13198;DHT22;6664;52.514;13.440;2023-03-19T01:24:31;7.90;25.70
13198;DHT22;6664;52.514;13.440;2023-03-19T01:27:19;7.90;25.60
13198;DHT22;6664;52.514;13.440;2023-03-19T01:30:05;7.90;25.60
13198;DHT22;6664;52.514;13.440;2023-03-19T01:32:53;8.00;25.50
13198;DHT22;6664;52.514;13.440;2023-03-19T01:35:39;7.90;25.10
13198;DHT22;6664;52.514;13.440;2023-03-19T01:38:25;8.00;24.90
13198;DHT22;6664;52.514;13.440;2023-03-19T01:41:11;8.00;25.20
13198;DHT22;6664;52.514;13.440;2023-03-19T01:43:59;8.00;25.00
13198;DHT22;6664;52.514;13.440;2023-03-19T01:46:44;8.00;24.70
13198;DHT22;6664;52.514;13.440;2023-03-19T01:49:31;8.00;24.50
13198;DHT22;6664;52.514;13.440;2023-03-19T01:52:19;8.00;24.60
13198;DHT22;6664;52.514;13.440;2023-03-19T01:55:05;8.00;24.30
13198;DHT22;6664;52.514;13.440;2023-03-19T01:57:54;8.00;24.30
13198;DHT22;6664;52.514;13.440;2023-03-19T02:00:42;8.00;24.00
13198;DHT22;6664;52.514;13.440;2023-03-19T02:03:27;8.00;24.10
13198;DHT22;6664;52.514;13.440;2023-03-19T02:06:13;8.00;24.00
13198;DHT22;6664;52.514;13.440;2023-03-19T02:08:59;8.10;23.90
13198;DHT22;6664;52.514;13.440;2023-03-19T02:11:47;8.00;24.00
13198;DHT22;6664;52.514;13.440;2023-03-19T02:14:34;8.00;24.00
13198;DHT22;6664;52.514;13.440;2023-03-19T02:17:20;8.00;23.90
13198;DHT22;6664;52.514;13.440;2023-03-19T02:23:25;8.00;23.70
13198;DHT22;6664;52.514;13.440;2023-03-19T02:26:18;8.00;23.40
13198;DHT22;6664;52.514;13.440;2023-03-19T02:29:05;8.00;23.60
13198;DHT22;6664;52.514;13.440;2023-03-19T02:31:51;8.10;23.50
13198;DHT22;6664;52.514;13.440;2023-03-19T02:34:39;8.10;23.50
13198;DHT22;6664;52.514;13.440;2023-03-19T02:37:27;8.20;23.30
13198;DHT22;6664;52.514;13.440;2023-03-19T02:40:22;8.20;23.20
13198;DHT22;6664;52.514;13.440;2023-03-19T02:43:09;8.30;23.10
13198;DHT22;6664;52.514;13.440;2023-03-19T02:45:55;8.30;22.70
13198;DHT22;6664;52.514;13.440;2023-03-19T02:48:43;8.30;22.70
13198;DHT22;6664;52.514;13.440;2023-03-19T02:51:28;8.30;22.60
13198;DHT22;6664;52.514;13.440;2023-03-19T02:54:16;8.40;22.40
13198;DHT22;6664;52.514;13.440;2023-03-19T02:57:03;8.40;22.10
13198;DHT22;6664;52.514;13.440;2023-03-19T02:59:51;8.40;22.20
13198;DHT22;6664;52.514;13.440;2023-03-19T03:02:37;8.50;21.70
13198;DHT22;6664;52.514;13.440;2023-03-19T03:05:23;8.50;21.70
13198;DHT22;6664;52.514;13.440;2023-03-19T03:08:09;8.60;21.80
13198;DHT22;6664;52.514;13.440;2023-03-19T03:10:55;8.60;21.70
13198;DHT22;6664;52.514;13.440;2023-03-19T03:13:40;8.60;21.40
13198;DHT22;6664;52.514;13.440;2023-03-19T03:16:29;8.60;21.20
13198;DHT22;6664;52.514;13.440;2023-03-19T03:19:17;8.60;21.10
13198;DHT22;6664;52.514;13.440;2023-03-19T03:22:03;8.60;20.90
13198;DHT22;6664;52.514;13.440;2023-03-19T03:24:49;8.60;20.80
13198;DHT22;6664;52.514;13.440;2023-03-19T03:27:35;8.70;20.50
13198;DHT22;6664;52.514;13.440;2023-03-19T03:30:21;8.70;20.30
13198;DHT22;6664;52.514;13.440;2023-03-19T03:33:10;8.80;20.20
13198;DHT22;6664;52.514;13.440;2023-03-19T03:35:58;8.70;20.00
13198;DHT22;6664;52.514;13.440;2023-03-19T03:38:44;8.80;20.10
13198;DHT22;6664;52.514;13.440;2023-03-19T03:41:30;8.80;20.10
13198;DHT22;6664;52.514;13.440;2023-03-19T03:44:20;8.80;20.30
13198;DHT22;6664;52.514;13.440;2023-03-19T03:47:05;8.80;20.30
13198;DHT22;6664;52.514;13.440;2023-03-19T03:49:51;8.70;20.10
13198;DHT22;6664;52.514;13.440;2023-03-19T03:52:38;8.70;20.40
13198;DHT22;6664;52.514;13.440;2023-03-19T03:55:23;8.70;20.50
13198;DHT22;6664;52.514;13.440;2023-03-19T03:58:10;8.60;20.50
13198;DHT22;6664;52.514;13.440;2023-03-19T04:00:57;8.60;20.70
13198;DHT22;6664;52.514;13.440;2023-03-19T04:03:47;8.60;20.80
13198;DHT22;6664;52.514;13.440;2023-03-19T04:06:33;8.60;20.60
13198;DHT22;6664;52.514;13.440;2023-03-19T04:09:21;8.60;20.60
13198;DHT22;6664;52.514;13.440;2023-03-19T04:12:07;8.70;20.60
13198;DHT22;6664;52.514;13.440;2023-03-19T04:14:52;8.70;20.50
13198;DHT22;6664;52.514;13.440;2023-03-19T04:17:38;8.70;20.60
13198;DHT22;6664;52.514;13.440;2023-03-19T04:20:26;8.70;20.80
13198;DHT22;6664;52.514;13.440;2023-03-19T04:23:11;8.60;20.70
13198;DHT22;6664;52.514;13.440;2023-03-19T04:25:59;8.70;20.80
13198;DHT22;6664;52.514;13.440;2023-03-19T04:28:44;8.80;20.90
13198;DHT22;6664;52.514;13.440;2023-03-19T04:31:30;8.80;20.80
13198;DHT22;6664;52.514;13.440;2023-03-19T04:34:15;8.80;20.70
13198;DHT22;6664;52.514;13.440;2023-03-19T04:37:04;8.80;20.80
13198;DHT22;6664;52.514;13.440;2023-03-19T04:39:50;8.80;20.80
13198;DHT22;6664;52.514;13.440;2023-03-19T04:42:36;8.90;20.80
13198;DHT22;6664;52.514;13.440;2023-03-19T04:45:21;8.90;20.70
13198;DHT22;6664;52.514;13.440;2023-03-19T04:48:06;8.90;20.40
13198;DHT22;6664;52.514;13.440;2023-03-19T04:50:52;9.00;20.30
13198;DHT22;6664;52.514;13.440;2023-03-19T04:53:43;9.00;20.30
13198;DHT22;6664;52.514;13.440;2023-03-19T04:56:28;9.10;20.20
13198;DHT22;6664;52.514;13.440;2023-03-19T04:59:15;9.10;20.30
13198;DHT22;6664;52.514;13.440;2023-03-19T05:02:00;9.10;20.80
13198;DHT22;6664;52.514;13.440;2023-03-19T05:04:46;9.20;20.20
13198;DHT22;6664;52.514;13.440;2023-03-19T05:07:31;9.20;19.70
13198;DHT22;6664;52.514;13.440;2023-03-19T05:10:19;9.20;19.50
13198;DHT22;6664;52.514;13.440;2023-03-19T05:13:07;9.30;20.60
13198;DHT22;6664;52.514;13.440;2023-03-19T05:15:53;9.30;21.30
13198;DHT22;6664;52.514;13.440;2023-03-19T05:18:40;9.30;22.20
13198;DHT22;6664;52.514;13.440;2023-03-19T05:21:26;9.30;24.90
13198;DHT22;6664;52.514;13.440;2023-03-19T05:24:13;9.30;26.50
13198;DHT22;6664;52.514;13.440;2023-03-19T05:27:01;9.30;27.10
13198;DHT22;6664;52.514;13.440;2023-03-19T05:29:46;9.20;27.00
13198;DHT22;6664;52.514;13.440;2023-03-19T05:32:32;9.10;26.80
13198;DHT22;6664;52.514;13.440;2023-03-19T05:35:18;9.00;28.10
13198;DHT22;6664;52.514;13.440;2023-03-19T05:38:04;8.90;28.80
13198;DHT22;6664;52.514;13.440;2023-03-19T05:40:49;8.80;30.50
13198;DHT22;6664;52.514;13.440;2023-03-19T05:43:35;8.60;32.00
13198;DHT22;6664;52.514;13.440;2023-03-19T05:46:21;8.70;35.90
13198;DHT22;6664;52.514;13.440;2023-03-19T05:49:10;8.80;37.30
13198;DHT22;6664;52.514;13.440;2023-03-19T05:51:56;8.90;38.70
13198;DHT22;6664;52.514;13.440;2023-03-19T05:54:43;8.80;38.80
13198;DHT22;6664;52.514;13.440;2023-03-19T05:57:33;8.80;39.80
13198;DHT22;6664;52.514;13.440;2023-03-19T06:00:19;8.90;40.70
13198;DHT22;6664;52.514;13.440;2023-03-19T06:03:05;9.00;41.20
13198;DHT22;6664;52.514;13.440;2023-03-19T06:05:53;9.20;41.60
13198;DHT22;6664;52.514;13.440;2023-03-19T06:08:41;9.40;41.10
13198;DHT22;6664;52.514;13.440;2023-03-19T06:11:27;9.50;41.00
13198;DHT22;6664;52.514;13.440;2023-03-19T06:14:12;9.50;41.70
13198;DHT22;6664;52.514;13.440;2023-03-19T06:16:58;9.50;41.80
13198;DHT22;6664;52.514;13.440;2023-03-19T06:19:43;9.60;42.00
13198;DHT22;6664;52.514;13.440;2023-03-19T06:22:31;9.50;43.00
13198;DHT22;6664;52.514;13.440;2023-03-19T06:25:16;9.50;43.20
13198;DHT22;6664;52.514;13.440;2023-03-19T06:28:03;9.40;42.90
13198;DHT22;6664;52.514;13.440;2023-03-19T06:30:48;9.30;42.00
13198;DHT22;6664;52.514;13.440;2023-03-19T06:33:34;9.30;42.30
13198;DHT22;6664;52.514;13.440;2023-03-19T06:36:21;9.20;41.40
13198;DHT22;6664;52.514;13.440;2023-03-19T06:39:06;9.20;40.30
13198;DHT22;6664;52.514;13.440;2023-03-19T06:41:52;9.20;39.50
13198;DHT22;6664;52.514;13.440;2023-03-19T06:44:39;9.40;38.90
13198;DHT22;6664;52.514;13.440;2023-03-19T06:47:25;9.70;38.60
13198;DHT22;6664;52.514;13.440;2023-03-19T06:50:11;10.00;36.60
13198;DHT22;6664;52.514;13.440;2023-03-19T06:52:57;10.10;34.10
13198;DHT22;6664;52.514;13.440;2023-03-19T06:55:45;10.30;33.10
13198;DHT22;6664;52.514;13.440;2023-03-19T06:58:31;10.30;31.40
13198;DHT22;6664;52.514;13.440;2023-03-19T07:01:19;10.20;30.00
13198;DHT22;6664;52.514;13.440;2023-03-19T07:04:04;10.30;30.40
13198;DHT22;6664;52.514;13.440;2023-03-19T07:06:50;10.10;29.40
13198;DHT22;6664;52.514;13.440;2023-03-19T07:09:36;10.20;29.60
13198;DHT22;6664;52.514;13.440;2023-03-19T07:12:22;10.10;28.80
13198;DHT22;6664;52.514;13.440;2023-03-19T07:15:10;9.90;29.20
13198;DHT22;6664;52.514;13.440;2023-03-19T07:17:56;9.80;29.90
13198;DHT22;6664;52.514;13.440;2023-03-19T07:20:41;10.00;28.30
13198;DHT22;6664;52.514;13.440;2023-03-19T07:23:27;10.10;28.20
13198;DHT22;6664;52.514;13.440;2023-03-19T07:26:16;10.10;27.90
13198;DHT22;6664;52.514;13.440;2023-03-19T07:29:02;10.00;27.60
13198;DHT22;6664;52.514;13.440;2023-03-19T07:31:47;10.10;27.80
13198;DHT22;6664;52.514;13.440;2023-03-19T07:34:33;10.30;27.70
13198;DHT22;6664;52.514;13.440;2023-03-19T07:37:19;10.30;27.80
13198;DHT22;6664;52.514;13.440;2023-03-19T07:40:09;10.30;27.50
13198;DHT22;6664;52.514;13.440;2023-03-19T07:42:57;10.50;27.90
13198;DHT22;6664;52.514;13.440;2023-03-19T07:45:44;10.90;27.20
13198;DHT22;6664;52.514;13.440;2023-03-19T07:48:30;11.20;27.10
13198;DHT22;6664;52.514;13.440;2023-03-19T07:51:16;11.40;26.40
13198;DHT22;6664;52.514;13.440;2023-03-19T07:54:04;11.40;26.40
13198;DHT22;6664;52.514;13.440;2023-03-19T07:56:49;11.50;25.90
13198;DHT22;6664;52.514;13.440;2023-03-19T07:59:34;11.60;25.70
13198;DHT22;6664;52.514;13.440;2023-03-19T08:02:23;11.60;25.70
13198;DHT22;6664;52.514;13.440;2023-03-19T08:05:10;11.70;25.40
13198;DHT22;6664;52.514;13.440;2023-03-19T08:07:55;11.70;25.30
13198;DHT22;6664;52.514;13.440;2023-03-19T08:10:41;11.50;25.40
13198;DHT22;6664;52.514;13.440;2023-03-19T08:13:27;11.30;25.90
13198;DHT22;6664;52.514;13.440;2023-03-19T08:16:12;11.40;25.90
13198;DHT22;6664;52.514;13.440;2023-03-19T08:18:57;11.60;25.60
13198;DHT22;6664;52.514;13.440;2023-03-19T08:21:43;11.80;25.30
13198;DHT22;6664;52.514;13.440;2023-03-19T08:24:29;12.00;25.30
13198;DHT22;6664;52.514;13.440;2023-03-19T08:27:15;11.80;25.30
13198;DHT22;6664;52.514;13.440;2023-03-19T08:30:01;11.80;25.30
13198;DHT22;6664;52.514;13.440;2023-03-19T08:32:48;11.80;25.10
13198;DHT22;6664;52.514;13.440;2023-03-19T08:35:34;11.60;25.70
13198;DHT22;6664;52.514;13.440;2023-03-19T08:38:20;11.60;26.40
13198;DHT22;6664;52.514;13.440;2023-03-19T08:41:08;11.40;26.70
13198;DHT22;6664;52.514;13.440;2023-03-19T08:43:54;11.20;27.10
13198;DHT22;6664;52.514;13.440;2023-03-19T08:46:39;11.10;27.60
13198;DHT22;6664;52.514;13.440;2023-03-19T08:49:26;11.20;28.60
13198;DHT22;6664;52.514;13.440;2023-03-19T08:52:14;11.00;33.70
13198;DHT22;6664;52.514;13.440;2023-03-19T08:55:03;10.80;35.20
13198;DHT22;6664;52.514;13.440;2023-03-19T08:57:52;10.70;36.90
13198;DHT22;6664;52.514;13.440;2023-03-19T09:00:37;10.50;39.60
13198;DHT22;6664;52.514;13.440;2023-03-19T09:03:24;10.30;43.30
13198;DHT22;6664;52.514;13.440;2023-03-19T09:06:11;10.20;44.40
13198;DHT22;6664;52.514;13.440;2023-03-19T09:08:58;10.10;46.20
13198;DHT22;6664;52.514;13.440;2023-03-19T09:11:43;10.10;47.10
13198;DHT22;6664;52.514;13.440;2023-03-19T09:14:33;10.00;47.90
13198;DHT22;6664;52.514;13.440;2023-03-19T09:17:18;10.00;49.30
13198;DHT22;6664;52.514;13.440;2023-03-19T09:20:04;10.10;50.50
13198;DHT22;6664;52.514;13.440;2023-03-19T09:22:52;10.20;50.20
13198;DHT22;6664;52.514;13.440;2023-03-19T09:25:38;10.40;49.60
13198;DHT22;6664;52.514;13.440;2023-03-19T09:28:23;10.70;48.10
13198;DHT22;6664;52.514;13.440;2023-03-19T09:31:10;10.80;48.20
13198;DHT22;6664;52.514;13.440;2023-03-19T09:33:57;10.80;47.10
13198;DHT22;6664;52.514;13.440;2023-03-19T09:36:42;10.80;46.60
13198;DHT22;6664;52.514;13.440;2023-03-19T09:39:30;10.80;45.60
13198;DHT22;6664;52.514;13.440;2023-03-19T09:45:32;11.10;43.70
13198;DHT22;6664;52.514;13.440;2023-03-19T09:48:41;11.50;44.40
13198;DHT22;6664;52.514;13.440;2023-03-19T09:51:48;12.00;43.00
13198;DHT22;6664;52.514;13.440;2023-03-19T09:54:44;12.50;40.80
13198;DHT22;6664;52.514;13.440;2023-03-19T09:57:32;12.90;38.70
13198;DHT22;6664;52.514;13.440;2023-03-19T10:00:22;13.00;36.90
13198;DHT22;6664;52.514;13.440;2023-03-19T10:15:14;14.00;29.70
13198;DHT22;6664;52.514;13.440;2023-03-19T10:18:15;14.00;29.60
13198;DHT22;6664;52.514;13.440;2023-03-19T10:21:12;14.40;28.00
13198;DHT22;6664;52.514;13.440;2023-03-19T10:24:05;14.30;27.90
13198;DHT22;6664;52.514;13.440;2023-03-19T10:26:58;14.20;27.90
13198;DHT22;6664;52.514;13.440;2023-03-19T10:29:47;14.10;28.00
13198;DHT22;6664;52.514;13.440;2023-03-19T10:32:40;14.00;28.00
13198;DHT22;6664;52.514;13.440;2023-03-19T10:35:44;14.20;27.60
13198;DHT22;6664;52.514;13.440;2023-03-19T10:38:39;14.60;26.90
13198;DHT22;6664;52.514;13.440;2023-03-19T10:41:43;15.10;25.60
13198;DHT22;6664;52.514;13.440;2023-03-19T10:44:34;15.40;24.60
13198;DHT22;6664;52.514;13.440;2023-03-19T10:47:25;15.20;24.20
13198;DHT22;6664;52.514;13.440;2023-03-19T10:50:19;15.30;24.30
13198;DHT22;6664;52.514;13.440;2023-03-19T10:59:05;15.80;21.90
13198;DHT22;6664;52.514;13.440;2023-03-19T11:02:01;15.60;22.30
13198;DHT22;6664;52.514;13.440;2023-03-19T11:04:49;15.70;22.50
13198;DHT22;6664;52.514;13.440;2023-03-19T11:08:07;16.00;22.30
13198;DHT22;6664;52.514;13.440;2023-03-19T11:11:51;16.50;21.10
13198;DHT22;6664;52.514;13.440;2023-03-19T11:14:44;17.10;19.40
13198;DHT22;6664;52.514;13.440;2023-03-19T11:17:46;17.40;19.00
13198;DHT22;6664;52.514;13.440;2023-03-19T11:20:34;17.60;17.90
13198;DHT22;6664;52.514;13.440;2023-03-19T11:23:20;17.70;17.20
13198;DHT22;6664;52.514;13.440;2023-03-19T11:26:08;17.80;16.60
13198;DHT22;6664;52.514;13.440;2023-03-19T11:29:03;17.50;16.40
13198;DHT22;6664;52.514;13.440;2023-03-19T11:35:36;17.90;15.80
13198;DHT22;6664;52.514;13.440;2023-03-19T11:41:46;17.50;15.20
13198;DHT22;6664;52.514;13.440;2023-03-19T11:50:56;17.70;15.50
13198;DHT22;6664;52.514;13.440;2023-03-19T11:53:59;17.70;16.20
13198;DHT22;6664;52.514;13.440;2023-03-19T11:56:55;17.40;15.20
13198;DHT22;6664;52.514;13.440;2023-03-19T12:00:06;17.30;15.80
13198;DHT22;6664;52.514;13.440;2023-03-19T12:06:23;17.10;15.90
13198;DHT22;6664;52.514;13.440;2023-03-19T12:09:27;16.80;16.50
13198;DHT22;6664;52.514;13.440;2023-03-19T12:15:30;16.50;17.50
13198;DHT22;6664;52.514;13.440;2023-03-19T12:18:40;16.50;17.50
13198;DHT22;6664;52.514;13.440;2023-03-19T12:27:58;16.80;16.70
13198;DHT22;6664;52.514;13.440;2023-03-19T12:34:15;16.90;17.20
13198;DHT22;6664;52.514;13.440;2023-03-19T12:37:09;16.80;16.70
13198;DHT22;6664;52.514;13.440;2023-03-19T12:43:40;17.30;16.40
13198;DHT22;6664;52.514;13.440;2023-03-19T12:46:56;17.40;15.70
13198;DHT22;6664;52.514;13.440;2023-03-19T12:49:52;17.70;16.00
13198;DHT22;6664;52.514;13.440;2023-03-19T12:52:46;17.90;14.60
13198;DHT22;6664;52.514;13.440;2023-03-19T13:01:52;19.40;12.50
13198;DHT22;6664;52.514;13.440;2023-03-19T13:04:51;21.20;8.40
13198;DHT22;6664;52.514;13.440;2023-03-19T13:11:04;21.40;6.90
13198;DHT22;6664;52.514;13.440;2023-03-19T13:17:22;21.50;5.90
13198;DHT22;6664;52.514;13.440;2023-03-19T13:23:05;21.70;4.40
13198;DHT22;6664;52.514;13.440;2023-03-19T13:25:56;21.80;5.20
13198;DHT22;6664;52.514;13.440;2023-03-19T13:29:00;21.30;5.20
13198;DHT22;6664;52.514;13.440;2023-03-19T13:31:49;21.20;5.90
13198;DHT22;6664;52.514;13.440;2023-03-19T13:34:37;22.20;4.70
13198;DHT22;6664;52.514;13.440;2023-03-19T13:37:23;22.80;3.70
13198;DHT22;6664;52.514;13.440;2023-03-19T13:40:44;22.80;2.90
13198;DHT22;6664;52.514;13.440;2023-03-19T13:55:27;22.60;2.60
13198;DHT22;6664;52.514;13.440;2023-03-19T13:58:22;22.50;2.80
13198;DHT22;6664;52.514;13.440;2023-03-19T14:04:18;22.80;3.00
13198;DHT22;6664;52.514;13.440;2023-03-19T14:07:17;23.60;1.30
13198;DHT22;6664;52.514;13.440;2023-03-19T14:10:46;24.00;1.00
13198;DHT22;6664;52.514;13.440;2023-03-19T14:13:39;23.40;1.00
13198;DHT22;6664;52.514;13.440;2023-03-19T14:16:35;22.70;1.10
13198;DHT22;6664;52.514;13.440;2023-03-19T14:19:22;21.70;2.60
13198;DHT22;6664;52.514;13.440;2023-03-19T14:25:15;21.20;4.30
13198;DHT22;6664;52.514;13.440;2023-03-19T14:28:08;21.50;4.60
13198;DHT22;6664;52.514;13.440;2023-03-19T14:30:55;22.40;3.10
13198;DHT22;6664;52.514;13.440;2023-03-19T14:33:44;23.70;1.40
13198;DHT22;6664;52.514;13.440;2023-03-19T14:36:35;25.30;1.00
13198;DHT22;6664;52.514;13.440;2023-03-19T14:39:26;25.20;1.00
13198;DHT22;6664;52.514;13.440;2023-03-19T14:48:02;24.90;1.00
13198;DHT22;6664;52.514;13.440;2023-03-19T14:51:10;26.20;1.00
13198;DHT22;6664;52.514;13.440;2023-03-19T14:56:48;28.50;1.00
13198;DHT22;6664;52.514;13.440;2023-03-19T14:59:38;28.10;1.00
13198;DHT22;6664;52.514;13.440;2023-03-19T15:05:34;26.60;1.00
13198;DHT22;6664;52.514;13.440;2023-03-19T15:08:22;26.20;1.00
13198;DHT22;6664;52.514;13.440;2023-03-19T15:17:18;22.80;1.00
13198;DHT22;6664;52.514;13.440;2023-03-19T15:20:19;21.90;1.00
13198;DHT22;6664;52.514;13.440;2023-03-19T15:23:07;21.20;1.00
13198;DHT22;6664;52.514;13.440;2023-03-19T15:26:10;20.80;1.00
13198;DHT22;6664;52.514;13.440;2023-03-19T15:28:56;20.20;1.00
13198;DHT22;6664;52.514;13.440;2023-03-19T15:31:48;20.30;1.00
13198;DHT22;6664;52.514;13.440;2023-03-19T15:34:48;21.10;1.00
13198;DHT22;6664;52.514;13.440;2023-03-19T15:37:42;20.90;1.00
13198;DHT22;6664;52.514;13.440;2023-03-19T15:40:30;20.50;1.00
13198;DHT22;6664;52.514;13.440;2023-03-19T15:43:20;20.10;1.00
13198;DHT22;6664;52.514;13.440;2023-03-19T15:46:12;19.70;1.00
13198;DHT22;6664;52.514;13.440;2023-03-19T15:49:14;19.30;1.50
13198;DHT22;6664;52.514;13.440;2023-03-19T15:52:03;19.20;1.90
13198;DHT22;6664;52.514;13.440;2023-03-19T15:54:51;19.50;2.20
13198;DHT22;6664;52.514;13.440;2023-03-19T15:57:37;19.70;1.20
13198;DHT22;6664;52.514;13.440;2023-03-19T16:00:26;20.40;1.00
13198;DHT22;6664;52.514;13.440;2023-03-19T16:03:17;20.50;1.30
13198;DHT22;6664;52.514;13.440;2023-03-19T16:06:06;20.30;1.00
13198;DHT22;6664;52.514;13.440;2023-03-19T16:09:14;20.00;1.10
13198;DHT22;6664;52.514;13.440;2023-03-19T16:12:21;19.90;1.20
13198;DHT22;6664;52.514;13.440;2023-03-19T16:15:28;19.50;2.10
13198;DHT22;6664;52.514;13.440;2023-03-19T16:21:08;19.10;3.50
13198;DHT22;6664;52.514;13.440;2023-03-19T16:24:00;19.00;2.90
13198;DHT22;6664;52.514;13.440;2023-03-19T16:26:47;18.80;3.40
13198;DHT22;6664;52.514;13.440;2023-03-19T16:29:39;18.60;3.70
13198;DHT22;6664;52.514;13.440;2023-03-19T16:32:29;18.30;3.30
13198;DHT22;6664;52.514;13.440;2023-03-19T16:35:15;18.10;4.40
13198;DHT22;6664;52.514;13.440;2023-03-19T16:38:16;17.70;4.40
13198;DHT22;6664;52.514;13.440;2023-03-19T16:41:15;17.50;4.80
13198;DHT22;6664;52.514;13.440;2023-03-19T16:44:27;17.30;5.40
13198;DHT22;6664;52.514;13.440;2023-03-19T16:47:15;17.00;6.40
13198;DHT22;6664;52.514;13.440;2023-03-19T16:50:01;16.80;6.90
13198;DHT22;6664;52.514;13.440;2023-03-19T16:52:47;16.60;6.60
13198;DHT22;6664;52.514;13.440;2023-03-19T16:55:34;16.40;7.00
13198;DHT22;6664;52.514;13.440;2023-03-19T17:01:29;16.00;7.90
13198;DHT22;6664;52.514;13.440;2023-03-19T17:04:15;15.80;8.60
13198;DHT22;6664;52.514;13.440;2023-03-19T17:07:04;15.60;9.10
13198;DHT22;6664;52.514;13.440;2023-03-19T17:09:50;15.40;9.60
13198;DHT22;6664;52.514;13.440;2023-03-19T17:12:36;15.20;10.30
13198;DHT22;6664;52.514;13.440;2023-03-19T17:18:23;14.90;11.10
13198;DHT22;6664;52.514;13.440;2023-03-19T17:21:16;14.80;11.80
13198;DHT22;6664;52.514;13.440;2023-03-19T17:24:29;14.60;12.00
13198;DHT22;6664;52.514;13.440;2023-03-19T17:27:18;14.50;13.40
13198;DHT22;6664;52.514;13.440;2023-03-19T17:30:07;14.30;14.00
13198;DHT22;6664;52.514;13.440;2023-03-19T17:32:53;14.20;13.80
13198;DHT22;6664;52.514;13.440;2023-03-19T17:35:41;14.10;14.10
13198;DHT22;6664;52.514;13.440;2023-03-19T17:38:32;13.90;14.80
13198;DHT22;6664;52.514;13.440;2023-03-19T17:41:18;13.80;15.10
13198;DHT22;6664;52.514;13.440;2023-03-19T17:44:04;13.70;15.60
13198;DHT22;6664;52.514;13.440;2023-03-19T17:46:54;13.60;15.50
13198;DHT22;6664;52.514;13.440;2023-03-19T17:49:40;13.50;15.70
13198;DHT22;6664;52.514;13.440;2023-03-19T17:52:27;13.30;16.40
13198;DHT22;6664;52.514;13.440;2023-03-19T17:58:02;13.10;17.80
13198;DHT22;6664;52.514;13.440;2023-03-19T18:00:49;13.10;18.00
13198;DHT22;6664;52.514;13.440;2023-03-19T18:03:40;13.00;18.00
13198;DHT22;6664;52.514;13.440;2023-03-19T18:06:31;13.20;18.00
13198;DHT22;6664;52.514;13.440;2023-03-19T18:09:21;13.20;18.10
13198;DHT22;6664;52.514;13.440;2023-03-19T18:12:06;13.20;17.80
13198;DHT22;6664;52.514;13.440;2023-03-19T18:14:52;13.20;17.90
13198;DHT22;6664;52.514;13.440;2023-03-19T18:17:43;13.20;18.20
13198;DHT22;6664;52.514;13.440;2023-03-19T18:20:36;13.30;18.10
13198;DHT22;6664;52.514;13.440;2023-03-19T18:23:22;13.30;18.50
13198;DHT22;6664;52.514;13.440;2023-03-19T18:26:09;13.30;18.40
13198;DHT22;6664;52.514;13.440;2023-03-19T18:28:56;13.30;18.30
13198;DHT22;6664;52.514;13.440;2023-03-19T18:31:43;13.30;18.30
13198;DHT22;6664;52.514;13.440;2023-03-19T18:34:33;13.40;18.10
13198;DHT22;6664;52.514;13.440;2023-03-19T18:37:18;13.50;17.70
13198;DHT22;6664;52.514;13.440;2023-03-19T18:40:04;13.60;17.50
13198;DHT22;6664;52.514;13.440;2023-03-19T18:42:50;13.60;17.60
13198;DHT22;6664;52.514;13.440;2023-03-19T18:45:37;13.60;17.90
13198;DHT22;6664;52.514;13.440;2023-03-19T18:48:26;13.60;18.00
13198;DHT22;6664;52.514;13.440;2023-03-19T18:51:12;13.50;18.20
13198;DHT22;6664;52.514;13.440;2023-03-19T18:53:57;13.40;18.90
13198;DHT22;6664;52.514;13.440;2023-03-19T18:56:44;13.40;19.60
13198;DHT22;6664;52.514;13.440;2023-03-19T18:59:31;13.30;19.80
13198;DHT22;6664;52.514;13.440;2023-03-19T19:02:31;13.20;19.80
13198;DHT22;6664;52.514;13.440;2023-03-19T19:05:25;13.20;20.50
13198;DHT22;6664;52.514;13.440;2023-03-19T19:08:16;13.20;20.60
13198;DHT22;6664;52.514;13.440;2023-03-19T19:11:05;13.10;21.10
13198;DHT22;6664;52.514;13.440;2023-03-19T19:13:56;13.20;21.10
13198;DHT22;6664;52.514;13.440;2023-03-19T19:16:42;13.10;21.50
13198;DHT22;6664;52.514;13.440;2023-03-19T19:19:30;13.10;21.70
13198;DHT22;6664;52.514;13.440;2023-03-19T19:22:19;13.10;21.90
13198;DHT22;6664;52.514;13.440;2023-03-19T19:25:05;13.10;22.00
13198;DHT22;6664;52.514;13.440;2023-03-19T19:30:43;13.20;22.30
13198;DHT22;6664;52.514;13.440;2023-03-19T19:33:33;13.20;22.30
13198;DHT22;6664;52.514;13.440;2023-03-19T19:36:23;13.20;22.30
13198;DHT22;6664;52.514;13.440;2023-03-19T19:39:11;13.20;22.30
13198;DHT22;6664;52.514;13.440;2023-03-19T19:41:58;13.20;22.30
13198;DHT22;6664;52.514;13.440;2023-03-19T19:44:51;13.20;22.00
13198;DHT22;6664;52.514;13.440;2023-03-19T19:47:37;13.40;21.90
13198;DHT22;6664;52.514;13.440;2023-03-19T19:50:26;13.40;21.60
13198;DHT22;6664;52.514;13.440;2023-03-19T19:53:12;13.40;21.40
13198;DHT22;6664;52.514;13.440;2023-03-19T19:55:59;13.40;21.30
13198;DHT22;6664;52.514;13.440;2023-03-19T19:58:45;13.40;21.40
13198;DHT22;6664;52.514;13.440;2023-03-19T20:01:34;13.40;21.30
13198;DHT22;6664;52.514;13.440;2023-03-19T20:04:20;13.40;21.10